Aviation Digital Data Service (ADDS)

Output produced by METARs form (1528 UTC 24 August 2019)
found at http://www.aviationweather.gov/metar/data/
 
KGXY 241456Z AUTO 04004KT 10SM 18/14 A3002 RMK AO2 SLP133 T01830139 56002 $